Time;durP1;ratioP1;P1;durP2;ratioP2;P2;SDS_P1;SDS_P2;PMS_P1;PMS_P2;Temp;Humidity;BMP_temperature;BMP_pressure;BME280_temperature;BME280_humidity;BME280_pressure;Samples;Min_cycle;Max_cycle;Signal;HPM_P1;HPM_P2
2021/10/16 00:01:01;;;;;;;4.80;1.33;;;8.90;99.90;;;;;;5006509;23;20500;-52
2021/10/16 00:03:28;;;;;;;3.30;2.07;;;8.80;99.90;;;;;;4996353;28;20508;-51
2021/10/16 00:05:58;;;;;;;2.80;1.70;;;8.80;99.90;;;;;;5018767;23;20576;-53
2021/10/16 00:08:25;;;;;;;8.90;2.23;;;8.80;99.90;;;;;;5015679;28;20964;-51
2021/10/16 00:10:51;;;;;;;3.43;1.17;;;8.80;99.90;;;;;;5023619;22;20886;-50
2021/10/16 00:13:19;;;;;;;12.73;1.80;;;8.80;99.90;;;;;;5015571;28;20961;-50
2021/10/16 00:15:46;;;;;;;1.57;1.10;;;8.80;99.90;;;;;;5023175;23;20496;-52
2021/10/16 00:18:13;;;;;;;4.73;1.33;;;8.70;99.90;;;;;;5016538;28;20465;-57
2021/10/16 00:20:40;;;;;;;2.77;1.37;;;8.70;99.90;;;;;;5023222;23;20596;-52
2021/10/16 00:23:07;;;;;;;7.77;1.40;;;8.60;99.90;;;;;;5015880;28;20459;-51
2021/10/16 00:25:34;;;;;;;1.87;0.70;;;8.60;99.90;;;;;;5023255;23;20493;-49
2021/10/16 00:28:00;;;;;;;2.00;1.00;;;8.60;99.90;;;;;;5015289;28;20503;-50
2021/10/16 00:30:29;;;;;;;3.30;1.83;;;8.50;99.90;;;;;;5023935;23;21603;-59
2021/10/16 00:32:56;;;;;;;4.20;0.90;;;8.50;99.90;;;;;;5016765;28;20504;-47
2021/10/16 00:35:23;;;;;;;2.57;1.60;;;8.50;99.90;;;;;;5022839;23;20485;-47
2021/10/16 00:37:50;;;;;;;3.83;1.50;;;8.50;99.90;;;;;;5015498;28;20444;-54
2021/10/16 00:42:56;;;;;;;9.20;1.50;;;8.50;99.90;;;;;;5023677;23;20564;-56
2021/10/16 00:45:25;;;;;;;5.53;1.27;;;8.50;99.90;;;;;;5015830;28;20487;-45
2021/10/16 00:47:54;;;;;;;5.80;1.50;;;8.50;99.90;;;;;;5024304;22;20885;-60
2021/10/16 00:50:22;;;;;;;5.17;1.03;;;8.50;99.90;;;;;;5015758;28;20472;-50
2021/10/16 00:52:49;;;;;;;4.50;2.03;;;8.40;99.90;;;;;;5006226;23;21052;-50
2021/10/16 00:55:18;;;;;;;5.57;1.90;;;8.40;99.90;;;;;;4995421;28;20508;-49
2021/10/16 00:57:45;;;;;;;1.80;1.40;;;8.40;99.90;;;;;;5016057;23;20484;-52
2021/10/16 01:00:13;;;;;;;4.37;1.30;;;8.40;99.90;;;;;;5015186;28;20495;-62
2021/10/16 01:02:40;;;;;;;6.33;1.37;;;8.50;99.90;;;;;;5023488;23;20496;-49
2021/10/16 01:05:09;;;;;;;2.23;1.50;;;8.40;99.90;;;;;;5014641;28;20479;-50
2021/10/16 01:07:38;;;;;;;6.50;1.47;;;8.50;99.90;;;;;;5022583;22;20559;-53
2021/10/16 01:10:06;;;;;;;0.90;0.80;;;8.50;99.90;;;;;;5014559;28;20946;-53
2021/10/16 01:12:33;;;;;;;4.27;1.27;;;8.50;99.90;;;;;;5023103;22;20488;-48
2021/10/16 01:15:03;;;;;;;9.07;2.10;;;8.50;99.90;;;;;;5015067;28;20539;-48
2021/10/16 01:17:30;;;;;;;3.07;1.67;;;8.50;99.90;;;;;;5022724;23;20476;-51
2021/10/16 01:20:01;;;;;;;3.10;0.93;;;8.40;99.90;;;;;;5015171;28;20543;-50
2021/10/16 01:22:31;;;;;;;3.27;0.87;;;8.40;99.90;;;;;;5022474;22;20843;-52
2021/10/16 01:24:59;;;;;;;11.70;1.87;;;8.30;99.90;;;;;;5014871;28;20465;-51
2021/10/16 01:27:26;;;;;;;2.50;1.27;;;8.40;99.90;;;;;;5022392;23;20526;-47
2021/10/16 01:29:53;;;;;;;10.87;1.80;;;8.40;99.90;;;;;;5015870;28;20472;-54
2021/10/16 01:34:48;;;;;;;8.50;1.40;;;8.30;99.90;;;;;;5020140;22;20909;-49
2021/10/16 01:37:14;;;;;;;2.13;1.17;;;8.30;99.90;;;;;;5014729;28;20433;-51
2021/10/16 01:39:42;;;;;;;5.20;1.57;;;8.30;99.90;;;;;;5022978;23;20473;-50
2021/10/16 01:42:13;;;;;;;1.00;0.73;;;8.30;99.90;;;;;;5014581;28;20465;-51
2021/10/16 01:44:40;;;;;;;2.90;1.23;;;8.30;99.90;;;;;;5038122;22;20500;-52
2021/10/16 01:47:07;;;;;;;9.10;2.00;;;8.40;99.90;;;;;;5014631;28;20467;-50
2021/10/16 01:49:34;;;;;;;5.00;1.50;;;8.30;99.90;;;;;;5022003;23;20493;-56
2021/10/16 01:52:00;;;;;;;5.23;1.93;;;8.30;99.90;;;;;;5014683;28;20433;-52
2021/10/16 01:54:27;;;;;;;6.53;1.60;;;8.30;99.90;;;;;;5022174;23;20496;-53
2021/10/16 01:56:55;;;;;;;4.90;1.50;;;8.30;99.90;;;;;;5014547;28;20425;-49
2021/10/16 01:59:24;;;;;;;6.37;1.70;;;8.30;99.90;;;;;;5022001;23;20615;-48
2021/10/16 02:01:51;;;;;;;6.23;1.30;;;8.30;99.90;;;;;;5014080;28;20485;-47
2021/10/16 02:04:17;;;;;;;6.33;1.23;;;8.30;99.90;;;;;;5022163;23;20488;-52
2021/10/16 02:06:44;;;;;;;2.90;1.30;;;8.30;99.90;;;;;;5014514;28;20889;-53
2021/10/16 02:09:11;;;;;;;6.17;2.53;;;8.20;99.90;;;;;;5021991;23;20484;-51
2021/10/16 02:11:39;;;;;;;2.20;1.07;;;8.30;99.90;;;;;;5017475;28;20436;-50
2021/10/16 02:16:37;;;;;;;3.63;1.30;;;8.30;99.90;;;;;;5016221;28;20552;-48
2021/10/16 02:21:46;;;;;;;2.70;1.07;;;8.20;99.90;;;;;;5022876;22;20583;-49
2021/10/16 02:24:13;;;;;;;4.40;1.50;;;8.20;99.90;;;;;;5017657;28;20460;-54
2021/10/16 02:26:39;;;;;;;2.20;0.80;;;8.30;99.90;;;;;;5025737;22;20493;-51
2021/10/16 02:29:06;;;;;;;3.93;1.67;;;8.30;99.90;;;;;;5017588;28;20444;-48
2021/10/16 02:31:32;;;;;;;3.63;1.20;;;8.30;99.90;;;;;;5032865;22;20550;-49
2021/10/16 02:34:00;;;;;;;6.70;1.57;;;8.20;99.90;;;;;;5017764;28;20516;-52
2021/10/16 02:36:27;;;;;;;4.80;1.57;;;8.20;99.90;;;;;;5025131;23;20523;-56
2021/10/16 02:38:54;;;;;;;7.53;1.50;;;8.30;99.90;;;;;;5017780;28;20956;-51
2021/10/16 02:41:21;;;;;;;3.23;1.27;;;8.30;99.90;;;;;;5025212;23;20499;-51
2021/10/16 02:43:47;;;;;;;7.10;1.20;;;8.30;99.90;;;;;;5017596;28;20452;-50
2021/10/16 02:46:14;;;;;;;5.97;2.10;;;8.30;99.90;;;;;;5025816;22;20473;-52
2021/10/16 02:48:41;;;;;;;4.10;1.53;;;8.30;99.90;;;;;;5017160;28;20469;-51
2021/10/16 02:51:09;;;;;;;4.50;0.90;;;8.30;99.90;;;;;;5017378;28;20531;-50
2021/10/16 02:53:35;;;;;;;6.83;1.53;;;8.30;99.90;;;;;;5025363;23;20814;-44
2021/10/16 02:56:02;;;;;;;4.20;1.20;;;8.30;99.90;;;;;;5017287;28;20477;-57
2021/10/16 02:58:29;;;;;;;11.43;1.50;;;8.30;99.90;;;;;;5024653;23;20492;-49
2021/10/16 03:00:55;;;;;;;4.63;2.00;;;8.30;99.90;;;;;;5017270;28;20465;-46
2021/10/16 03:03:22;;;;;;;3.53;1.17;;;8.30;99.90;;;;;;5024850;23;20481;-48
2021/10/16 03:05:49;;;;;;;10.07;1.60;;;8.30;99.90;;;;;;5016799;28;20535;-52
2021/10/16 03:08:18;;;;;;;1.67;0.80;;;8.30;99.90;;;;;;5024363;23;20504;-51
2021/10/16 03:10:45;;;;;;;2.70;1.07;;;8.20;99.90;;;;;;5016684;28;20539;-52
2021/10/16 03:13:12;;;;;;;2.67;1.20;;;8.20;99.90;;;;;;5032862;23;21051;-47
2021/10/16 03:15:39;;;;;;;1.93;1.10;;;8.20;99.90;;;;;;5035878;28;20786;-51
2021/10/16 03:18:06;;;;;;;11.70;1.77;;;8.20;99.90;;;;;;5036435;28;20440;-52
2021/10/16 03:20:33;;;;;;;5.60;1.63;;;8.30;99.90;;;;;;5026569;22;21136;-48
2021/10/16 03:22:59;;;;;;;3.13;1.13;;;8.30;99.90;;;;;;5016857;28;20499;-51
2021/10/16 03:25:28;;;;;;;1.30;1.20;;;8.30;99.90;;;;;;5024360;23;20492;-50
2021/10/16 03:27:54;;;;;;;3.23;1.70;;;8.30;99.90;;;;;;5016854;28;20548;-50
2021/10/16 03:30:22;;;;;;;3.33;1.07;;;8.30;99.90;;;;;;5024060;22;20492;-51
2021/10/16 03:32:49;;;;;;;2.13;1.33;;;8.40;99.90;;;;;;5016736;28;20441;-50
2021/10/16 03:35:15;;;;;;;8.33;1.60;;;8.40;99.90;;;;;;5024399;23;20481;-47
2021/10/16 03:37:42;;;;;;;4.47;1.53;;;8.50;99.90;;;;;;5016645;28;20418;-47
2021/10/16 03:40:10;;;;;;;6.70;1.13;;;8.50;99.90;;;;;;5023944;22;20495;-47
2021/10/16 03:42:38;;;;;;;1.77;1.10;;;8.50;99.90;;;;;;5016066;28;20517;-51
2021/10/16 03:45:06;;;;;;;4.90;2.13;;;8.50;99.90;;;;;;5023937;23;20485;-51
2021/10/16 03:47:32;;;;;;;12.93;1.80;;;8.60;99.90;;;;;;5016420;28;20449;-50
2021/10/16 03:49:59;;;;;;;3.30;1.20;;;8.60;99.90;;;;;;5023621;22;20497;-51
2021/10/16 03:52:26;;;;;;;7.43;1.53;;;8.60;99.90;;;;;;5015405;28;20469;-47
2021/10/16 03:54:52;;;;;;;2.30;1.70;;;8.60;99.90;;;;;;5023997;23;20449;-48
2021/10/16 03:57:19;;;;;;;4.97;1.77;;;8.70;99.90;;;;;;5023575;22;20543;-50
2021/10/16 03:59:47;;;;;;;11.23;1.77;;;8.60;99.90;;;;;;5015943;28;20964;-49
2021/10/16 04:02:15;;;;;;;3.23;1.20;;;8.60;99.90;;;;;;5023876;23;20496;-53
2021/10/16 04:04:42;;;;;;;1.27;0.87;;;8.60;99.90;;;;;;5016076;28;20481;-51
2021/10/16 04:07:08;;;;;;;1.80;1.03;;;8.60;99.90;;;;;;5023551;23;20493;-48
2021/10/16 04:09:35;;;;;;;3.70;1.33;;;8.70;99.90;;;;;;5016018;28;20453;-46
2021/10/16 04:12:02;;;;;;;10.73;1.80;;;8.70;99.90;;;;;;5015970;28;20523;-57
2021/10/16 04:14:28;;;;;;;5.33;1.53;;;8.70;99.90;;;;;;5016132;28;20476;-49
2021/10/16 04:16:57;;;;;;;2.83;1.60;;;8.70;99.90;;;;;;5015744;28;20468;-51
2021/10/16 04:19:23;;;;;;;3.30;0.97;;;8.70;99.90;;;;;;5015768;28;20448;-48
2021/10/16 04:21:50;;;;;;;7.43;1.73;;;8.70;99.90;;;;;;5015586;28;20492;-51
2021/10/16 04:24:17;;;;;;;4.80;1.50;;;8.70;99.90;;;;;;5015749;28;20548;-48
2021/10/16 04:26:43;;;;;;;3.27;1.50;;;8.70;99.90;;;;;;5015669;28;20808;-48
2021/10/16 04:29:10;;;;;;;1.90;1.50;;;8.70;99.90;;;;;;5015356;28;20925;-47
2021/10/16 04:31:37;;;;;;;3.87;1.30;;;8.80;99.90;;;;;;5015226;28;20966;-50
2021/10/16 04:34:06;;;;;;;6.77;1.50;;;8.70;99.90;;;;;;5014589;28;20456;-54
2021/10/16 04:36:33;;;;;;;12.83;2.30;;;8.80;99.90;;;;;;5015573;28;20497;-51
2021/10/16 04:39:00;;;;;;;3.07;1.13;;;8.80;99.90;;;;;;5015238;28;20474;-46
2021/10/16 04:41:26;;;;;;;2.27;1.47;;;8.80;99.90;;;;;;5015241;28;20473;-53
2021/10/16 04:43:53;;;;;;;4.47;0.90;;;8.80;99.90;;;;;;5015438;28;20425;-51
2021/10/16 04:46:24;;;;;;;2.57;1.40;;;8.80;99.90;;;;;;5015321;28;20477;-51
2021/10/16 04:48:51;;;;;;;2.73;1.03;;;8.80;99.90;;;;;;5015353;28;20543;-54
2021/10/16 04:51:19;;;;;;;5.07;1.30;;;8.80;99.90;;;;;;5014913;28;20465;-51
2021/10/16 04:53:46;;;;;;;3.23;0.93;;;8.80;99.90;;;;;;5015357;28;20425;-53
2021/10/16 04:56:13;;;;;;;4.50;1.67;;;8.80;99.90;;;;;;5015100;28;20539;-50
2021/10/16 04:58:40;;;;;;;8.37;2.20;;;8.80;99.90;;;;;;5015143;28;20449;-49
2021/10/16 05:01:06;;;;;;;2.90;1.53;;;8.80;99.90;;;;;;5014874;28;20448;-53
2021/10/16 05:03:33;;;;;;;5.07;1.77;;;8.80;99.90;;;;;;5015107;28;20469;-48
2021/10/16 05:06:00;;;;;;;1.63;1.27;;;8.80;99.90;;;;;;5014552;28;20460;-52
2021/10/16 05:08:30;;;;;;;2.83;1.60;;;8.90;99.90;;;;;;5014774;28;20906;-51
2021/10/16 05:10:57;;;;;;;5.60;1.30;;;8.90;99.90;;;;;;5015235;28;20446;-51
2021/10/16 05:13:25;;;;;;;2.60;0.90;;;8.90;99.90;;;;;;5014945;28;20536;-49
2021/10/16 05:15:51;;;;;;;3.97;1.73;;;8.90;99.90;;;;;;5014983;28;20489;-56
2021/10/16 05:18:21;;;;;;;7.23;1.40;;;8.90;99.90;;;;;;5014910;28;20472;-51
2021/10/16 05:20:48;;;;;;;5.20;1.30;;;8.90;99.90;;;;;;5014801;28;20813;-53
2021/10/16 05:23:14;;;;;;;3.70;1.83;;;8.90;99.90;;;;;;5014764;28;20504;-48
2021/10/16 05:25:43;;;;;;;2.50;1.10;;;9.00;99.90;;;;;;5014925;28;20464;-49
2021/10/16 05:28:10;;;;;;;2.93;1.33;;;9.00;99.90;;;;;;5014859;28;20460;-50
2021/10/16 05:30:37;;;;;;;5.20;1.10;;;9.00;99.90;;;;;;5014742;28;20453;-52
2021/10/16 05:33:04;;;;;;;6.93;1.33;;;9.00;99.90;;;;;;5014668;28;20465;-53
2021/10/16 05:35:31;;;;;;;14.57;1.53;;;9.00;99.90;;;;;;5014375;28;20449;-51
2021/10/16 05:37:57;;;;;;;3.63;1.10;;;9.00;99.90;;;;;;5014698;28;20469;-53
2021/10/16 05:40:24;;;;;;;4.50;1.50;;;9.00;99.90;;;;;;5014707;28;20453;-49
2021/10/16 05:42:52;;;;;;;11.50;2.10;;;9.00;99.90;;;;;;5014620;28;20481;-50
2021/10/16 05:45:19;;;;;;;2.43;1.20;;;9.00;99.90;;;;;;5017845;28;20471;-49
2021/10/16 05:47:46;;;;;;;11.57;1.57;;;9.10;99.90;;;;;;5018540;28;20490;-51
2021/10/16 05:50:13;;;;;;;10.33;1.97;;;9.00;99.90;;;;;;5018651;28;20441;-50
2021/10/16 05:52:39;;;;;;;4.60;1.00;;;9.00;99.90;;;;;;5018587;28;20468;-48
2021/10/16 05:55:07;;;;;;;4.20;1.30;;;8.90;99.90;;;;;;5018507;28;20457;-50
2021/10/16 05:57:34;;;;;;;4.57;1.30;;;8.90;99.90;;;;;;5018439;28;20473;-48
2021/10/16 06:00:04;;;;;;;4.83;1.90;;;9.00;99.90;;;;;;5018125;28;20898;-50
2021/10/16 06:02:31;;;;;;;4.67;1.30;;;9.00;99.90;;;;;;5018540;28;20856;-53
2021/10/16 06:04:58;;;;;;;6.30;1.50;;;9.00;99.90;;;;;;5018376;28;20836;-56
2021/10/16 06:07:25;;;;;;;3.17;1.70;;;9.00;99.90;;;;;;5017985;28;20461;-52
2021/10/16 06:09:51;;;;;;;2.90;1.50;;;9.00;99.90;;;;;;5018240;28;20468;-49
2021/10/16 06:12:18;;;;;;;7.00;1.80;;;9.00;99.90;;;;;;5017887;28;20496;-51
2021/10/16 06:14:45;;;;;;;11.30;1.60;;;9.10;99.90;;;;;;5018318;28;20460;-53
2021/10/16 06:17:13;;;;;;;2.93;1.50;;;9.20;99.90;;;;;;5017730;28;20479;-53
2021/10/16 06:19:41;;;;;;;3.67;2.20;;;9.20;99.90;;;;;;5017876;28;20918;-52
2021/10/16 06:22:08;;;;;;;14.23;2.47;;;9.30;99.90;;;;;;5018104;28;20556;-51
2021/10/16 06:24:34;;;;;;;6.40;1.17;;;9.30;99.90;;;;;;5017834;28;20440;-48
2021/10/16 06:27:01;;;;;;;10.27;1.90;;;9.30;99.90;;;;;;5017499;28;20479;-51
2021/10/16 06:29:28;;;;;;;4.40;1.53;;;9.40;99.90;;;;;;5017921;28;20441;-51
2021/10/16 06:31:55;;;;;;;3.33;1.40;;;9.40;99.90;;;;;;5017726;28;20440;-51
2021/10/16 06:34:23;;;;;;;4.87;1.60;;;9.50;99.90;;;;;;5017531;28;20920;-51
2021/10/16 06:36:49;;;;;;;8.93;2.23;;;9.40;99.90;;;;;;5017637;28;20726;-53
2021/10/16 06:39:16;;;;;;;4.17;2.30;;;9.40;99.90;;;;;;5017595;28;20471;-48
2021/10/16 06:41:43;;;;;;;12.10;1.80;;;9.40;99.90;;;;;;5017590;28;20441;-53
2021/10/16 06:44:10;;;;;;;9.50;1.83;;;9.40;99.90;;;;;;5017553;28;20507;-53
2021/10/16 06:46:37;;;;;;;4.43;1.90;;;9.40;99.90;;;;;;5017244;28;20449;-48
2021/10/16 06:49:03;;;;;;;2.93;1.43;;;9.40;99.90;;;;;;5017505;28;20788;-46
2021/10/16 06:51:31;;;;;;;8.83;2.03;;;9.40;99.90;;;;;;5017186;28;20961;-57
2021/10/16 06:53:58;;;;;;;10.27;2.90;;;9.40;99.90;;;;;;5017422;28;20805;-48
2021/10/16 06:56:26;;;;;;;6.20;2.20;;;9.40;99.90;;;;;;5016574;28;20449;-51
2021/10/16 06:58:53;;;;;;;8.80;2.50;;;9.50;99.90;;;;;;5017394;28;20558;-48
2021/10/16 07:01:19;;;;;;;2.23;1.43;;;9.60;99.90;;;;;;5016979;28;20461;-60
2021/10/16 07:03:46;;;;;;;6.37;1.40;;;9.60;99.90;;;;;;5017014;28;20980;-49
2021/10/16 07:06:13;;;;;;;9.23;1.80;;;9.60;99.90;;;;;;5017064;28;20468;-51
2021/10/16 07:08:41;;;;;;;2.83;1.23;;;9.60;99.90;;;;;;5016760;28;20945;-52
2021/10/16 07:11:08;;;;;;;2.93;1.33;;;9.70;99.90;;;;;;5016790;28;20539;-51
2021/10/16 07:13:36;;;;;;;4.47;1.83;;;9.70;99.90;;;;;;5016985;28;20469;-50
2021/10/16 07:16:03;;;;;;;4.43;2.60;;;9.70;99.90;;;;;;5016691;28;20472;-48
2021/10/16 07:18:30;;;;;;;6.47;2.03;;;9.70;99.90;;;;;;5016552;28;21024;-47
2021/10/16 07:20:56;;;;;;;3.10;2.20;;;9.70;99.90;;;;;;5016926;28;20906;-51
2021/10/16 07:23:26;;;;;;;4.47;1.93;;;9.60;99.90;;;;;;5016351;28;20485;-54
2021/10/16 07:25:55;;;;;;;5.10;1.90;;;9.60;99.90;;;;;;5016636;28;21013;-60
2021/10/16 07:28:22;;;;;;;8.47;2.43;;;9.60;99.90;;;;;;5016718;28;20779;-49
2021/10/16 07:30:49;;;;;;;7.50;2.10;;;9.50;99.90;;;;;;5016739;28;20437;-54
2021/10/16 07:33:16;;;;;;;5.13;2.97;;;9.60;99.90;;;;;;5016591;28;20534;-50
2021/10/16 07:35:43;;;;;;;12.30;3.00;;;9.60;99.90;;;;;;5016370;28;20445;-50
2021/10/16 07:38:11;;;;;;;2.30;1.73;;;9.60;99.90;;;;;;5017452;28;20473;-50
2021/10/16 07:40:38;;;;;;;7.93;1.47;;;9.60;99.90;;;;;;5040506;28;20442;-43
2021/10/16 07:43:06;;;;;;;6.03;1.70;;;9.70;99.90;;;;;;5040206;28;20469;-40
2021/10/16 07:45:33;;;;;;;3.53;2.17;;;9.90;99.90;;;;;;5040449;28;20456;-40
2021/10/16 07:48:00;;;;;;;2.50;1.70;;;10.10;99.90;;;;;;5040300;28;20520;-40
2021/10/16 07:50:27;;;;;;;2.43;1.60;;;10.20;99.90;;;;;;5040242;28;20429;-41
2021/10/16 07:52:55;;;;;;;7.77;1.83;;;10.20;99.90;;;;;;5040228;28;20450;-44
2021/10/16 07:55:22;;;;;;;2.70;1.63;;;10.30;99.90;;;;;;5040107;28;20444;-44
2021/10/16 07:57:49;;;;;;;7.70;1.77;;;10.40;99.90;;;;;;5040037;28;20444;-41
2021/10/16 08:00:18;;;;;;;4.50;2.67;;;10.50;99.90;;;;;;5040142;28;20421;-43
2021/10/16 08:02:46;;;;;;;11.40;2.00;;;10.50;99.90;;;;;;5039921;28;20471;-42
2021/10/16 08:05:14;;;;;;;3.03;1.83;;;10.60;99.90;;;;;;5040074;28;20409;-44
2021/10/16 08:07:42;;;;;;;10.90;2.57;;;10.70;99.90;;;;;;5039670;28;20437;-42
2021/10/16 08:10:10;;;;;;;3.60;1.77;;;10.70;99.90;;;;;;5039928;28;20429;-40
2021/10/16 08:12:37;;;;;;;8.87;2.00;;;10.80;99.90;;;;;;5039798;28;20413;-43
2021/10/16 08:15:05;;;;;;;5.43;1.83;;;11.00;99.90;;;;;;5039806;28;20449;-41
2021/10/16 08:17:35;;;;;;;3.30;1.60;;;11.10;99.90;;;;;;5039554;28;20460;-44
2021/10/16 08:20:02;;;;;;;2.70;1.70;;;11.20;99.90;;;;;;5039752;28;20410;-42
2021/10/16 08:22:32;;;;;;;6.60;1.63;;;11.30;99.90;;;;;;5039581;28;20452;-41
2021/10/16 08:24:59;;;;;;;6.80;1.80;;;11.40;99.90;;;;;;5039564;28;20417;-43
2021/10/16 08:27:26;;;;;;;4.80;1.70;;;11.50;99.90;;;;;;5039577;28;20516;-44
2021/10/16 08:29:52;;;;;;;9.00;1.60;;;11.60;99.90;;;;;;5039584;28;20417;-40
2021/10/16 08:32:20;;;;;;;8.13;1.57;;;11.70;99.90;;;;;;5039598;28;20413;-42
2021/10/16 08:34:48;;;;;;;6.90;1.50;;;11.80;99.90;;;;;;5039751;28;20425;-43
2021/10/16 08:37:15;;;;;;;1.50;1.10;;;11.90;99.90;;;;;;5039597;28;20437;-42
2021/10/16 08:39:42;;;;;;;6.30;1.57;;;12.00;99.90;;;;;;5039432;28;20447;-42
2021/10/16 08:42:10;;;;;;;5.47;1.80;;;12.10;99.90;;;;;;5039388;28;20464;-42
2021/10/16 08:44:37;;;;;;;3.83;1.97;;;12.30;99.90;;;;;;5039154;28;20476;-46
2021/10/16 08:47:05;;;;;;;3.57;1.30;;;12.40;99.90;;;;;;5039216;28;20424;-41
2021/10/16 08:49:33;;;;;;;2.80;1.47;;;12.40;99.90;;;;;;5038487;28;20517;-49
2021/10/16 08:52:01;;;;;;;2.87;1.67;;;12.40;99.90;;;;;;5037021;28;20548;-45
2021/10/16 08:54:29;;;;;;;9.10;2.00;;;12.40;99.90;;;;;;5036667;28;20465;-49
2021/10/16 08:56:56;;;;;;;2.30;1.40;;;12.50;99.90;;;;;;5036672;28;20441;-48
2021/10/16 08:59:23;;;;;;;6.50;2.10;;;12.60;99.90;;;;;;5035904;28;20462;-48
2021/10/16 09:02:00;;;;;;;4.80;1.53;;;12.50;99.90;;;;;;5036462;28;20501;-53
2021/10/16 09:04:30;;;;;;;3.67;2.13;;;12.50;99.90;;;;;;5036257;28;20552;-46
2021/10/16 09:06:57;;;;;;;4.13;1.53;;;12.60;99.90;;;;;;5036354;28;20445;-58
2021/10/16 09:09:27;;;;;;;2.53;1.23;;;12.70;99.90;;;;;;5036996;28;20489;-48
2021/10/16 09:11:55;;;;;;;9.40;2.77;;;12.80;99.90;;;;;;5037240;28;20496;-49
2021/10/16 09:14:24;;;;;;;3.30;1.33;;;12.90;99.90;;;;;;5036871;28;20516;-51
2021/10/16 09:16:54;;;;;;;3.17;1.40;;;13.00;99.90;;;;;;5036995;28;20472;-51
2021/10/16 09:19:23;;;;;;;3.00;1.10;;;13.30;99.90;;;;;;5036500;28;20469;-52
2021/10/16 09:21:53;;;;;;;3.73;1.63;;;13.40;99.90;;;;;;5036925;28;20481;-50
2021/10/16 09:24:23;;;;;;;2.20;1.37;;;13.50;99.90;;;;;;5036935;28;20488;-49
2021/10/16 09:26:54;;;;;;;4.83;1.40;;;13.50;99.90;;;;;;5036631;28;20455;-50
2021/10/16 09:29:23;;;;;;;6.83;1.37;;;13.60;99.90;;;;;;5036829;28;20480;-48
2021/10/16 09:31:52;;;;;;;2.90;1.30;;;13.50;99.90;;;;;;5036566;28;20456;-46
2021/10/16 09:34:24;;;;;;;2.70;1.20;;;13.50;99.90;;;;;;5036711;28;20541;-49
2021/10/16 09:36:51;;;;;;;2.20;1.30;;;13.80;99.90;;;;;;5036749;28;20424;-50
2021/10/16 09:39:19;;;;;;;7.37;1.47;;;14.20;99.90;;;;;;5036312;28;20495;-51
2021/10/16 09:41:48;;;;;;;3.80;2.40;;;14.50;99.90;;;;;;5036500;28;20457;-51
2021/10/16 09:44:25;;;;;;;4.17;1.20;;;15.30;99.90;;;;;;5036216;28;20487;-51
2021/10/16 09:47:08;;;;;;;2.73;1.67;;;15.90;99.90;;;;;;5036109;28;20420;-48
2021/10/16 09:49:58;;;;;;;5.70;1.40;;;15.90;99.90;;;;;;5144325;22;20477;-50
2021/10/16 09:52:38;;;;;;;2.90;1.73;;;15.60;99.90;;;;;;5014397;28;20430;-53
2021/10/16 09:55:07;;;;;;;6.13;1.30;;;15.40;99.90;;;;;;5091404;22;20481;-51
2021/10/16 09:57:34;;;;;;;5.33;1.40;;;15.20;99.90;;;;;;5054413;28;20492;-56
2021/10/16 10:00:05;;;;;;;4.53;1.83;;;15.10;99.90;;;;;;5074971;22;20470;-53
2021/10/16 10:02:33;;;;;;;5.07;1.60;;;14.90;99.90;;;;;;5034724;28;20472;-54
2021/10/16 10:07:34;;;;;;;6.47;1.60;;;14.90;99.90;;;;;;5052734;28;20476;-56
2021/10/16 10:10:02;;;;;;;3.73;1.50;;;15.00;99.90;;;;;;5054504;28;20475;-55
2021/10/16 10:12:55;;;;;;;3.80;1.17;;;15.10;99.90;;;;;;5061128;22;20513;-53
2021/10/16 10:17:56;;;;;;;2.77;1.50;;;15.40;99.90;;;;;;5073234;22;20487;-56
2021/10/16 10:20:27;;;;;;;2.30;1.57;;;15.60;99.90;;;;;;5054800;28;20507;-52
2021/10/16 10:23:14;;;;;;;2.67;1.20;;;15.80;99.90;;;;;;5059032;23;20901;-56
2021/10/16 10:28:07;;;;;;;4.50;1.10;;;15.90;99.90;;;;;;5037124;22;20553;-55
2021/10/16 10:30:42;;;;;;;1.77;1.03;;;15.90;99.90;;;;;;5015129;28;20465;-56
2021/10/16 10:33:29;;;;;;;4.67;1.23;;;15.80;99.90;;;;;;5042284;23;20472;-53
2021/10/16 10:38:41;;;;;;;4.20;1.53;;;15.40;99.90;;;;;;5061522;22;20476;-50
2021/10/16 10:44:02;;;;;;;9.10;2.20;;;15.10;99.90;;;;;;5079137;22;20480;-53
2021/10/16 10:49:12;;;;;;;2.00;1.13;;;15.20;99.90;;;;;;5074119;22;20503;-56
2021/10/16 10:51:39;;;;;;;3.63;1.27;;;15.30;99.90;;;;;;5038518;28;20468;-55
2021/10/16 10:54:11;;;;;;;2.20;1.10;;;15.60;99.90;;;;;;5062053;23;20526;-55
2021/10/16 10:56:40;;;;;;;1.90;1.00;;;15.80;99.90;;;;;;5058222;28;20451;-55
2021/10/16 10:59:12;;;;;;;5.13;1.03;;;15.60;99.90;;;;;;5063030;22;20485;-50
2021/10/16 11:01:58;;;;;;;1.63;1.00;;;15.40;99.90;;;;;;5037910;28;20486;-55
2021/10/16 11:04:55;;;;;;;2.10;1.60;;;15.20;99.90;;;;;;5046093;22;20499;-56
2021/10/16 11:09:49;;;;;;;3.10;1.37;;;15.10;99.90;;;;;;5059933;22;20493;-54
2021/10/16 11:12:19;;;;;;;2.13;0.97;;;14.90;99.90;;;;;;5038395;28;20509;-56
2021/10/16 11:14:46;;;;;;;3.17;1.30;;;14.90;99.90;;;;;;5044001;22;20509;-53
2021/10/16 11:17:15;;;;;;;3.50;2.20;;;14.80;99.90;;;;;;5017571;28;20477;-55
2021/10/16 11:19:57;;;;;;;3.47;1.27;;;14.70;99.90;;;;;;5039980;22;20540;-49
2021/10/16 11:22:39;;;;;;;6.50;1.17;;;14.50;99.90;;;;;;5037387;28;20441;-50
2021/10/16 11:25:07;;;;;;;4.83;1.47;;;14.40;99.90;;;;;;5078091;22;20551;-56
2021/10/16 11:27:39;;;;;;;4.47;1.20;;;14.40;99.90;;;;;;5057641;28;20432;-51
2021/10/16 11:30:19;;;;;;;2.10;1.07;;;14.40;99.90;;;;;;5064635;22;20508;-50
2021/10/16 11:32:48;;;;;;;2.10;1.50;;;14.40;99.90;;;;;;5037603;28;20425;-49
2021/10/16 11:35:18;;;;;;;3.80;1.03;;;14.40;99.90;;;;;;5058294;22;20519;-48
2021/10/16 11:37:53;;;;;;;3.93;1.00;;;14.30;99.90;;;;;;5056676;28;20467;-48
2021/10/16 11:40:23;;;;;;;1.53;0.90;;;14.30;99.90;;;;;;5068664;22;20523;-49
2021/10/16 11:42:52;;;;;;;2.00;0.90;;;14.40;99.90;;;;;;5037227;28;20528;-51
2021/10/16 11:45:21;;;;;;;2.03;1.07;;;14.50;99.90;;;;;;5059968;23;20492;-47
2021/10/16 11:47:50;;;;;;;1.73;0.90;;;14.50;99.90;;;;;;5036952;28;20441;-52
2021/10/16 11:50:21;;;;;;;2.30;1.00;;;14.60;99.90;;;;;;5053073;22;20484;-50
2021/10/16 11:52:50;;;;;;;3.90;1.30;;;14.60;99.90;;;;;;5057257;28;20448;-52
2021/10/16 11:55:20;;;;;;;1.13;0.77;;;14.50;99.90;;;;;;5063040;22;20484;-57
2021/10/16 11:57:48;;;;;;;4.50;1.10;;;14.30;99.90;;;;;;5057216;28;20428;-53
2021/10/16 12:00:27;;;;;;;1.70;1.07;;;14.20;99.90;;;;;;5089474;22;20572;-60
2021/10/16 12:02:54;;;;;;;2.77;1.00;;;14.10;99.90;;;;;;5036623;28;20449;-49
2021/10/16 12:05:54;;;;;;;;;;;;;;;;;;;;;
2021/10/16 12:08:24;;;;;;;4.23;0.93;;;13.70;99.90;;;;;;5031534;28;20560;-54
2021/10/16 12:10:55;;;;;;;2.50;1.20;;;13.60;99.90;;;;;;5074874;22;20475;-53
2021/10/16 12:13:34;;;;;;;2.80;1.00;;;13.60;99.90;;;;;;5054699;28;20436;-52
2021/10/16 12:19:27;;;;;;;4.20;1.03;;;13.50;99.90;;;;;;5015298;28;20448;-49
2021/10/16 12:22:07;;;;;;;7.03;1.80;;;13.40;99.90;;;;;;5160387;22;20468;-51
2021/10/16 12:24:35;;;;;;;3.00;1.20;;;13.50;99.90;;;;;;5037257;28;20488;-48
2021/10/16 12:27:08;;;;;;;2.73;1.60;;;13.60;99.90;;;;;;5037301;28;20464;-53
2021/10/16 12:29:38;;;;;;;4.77;1.47;;;13.60;99.90;;;;;;5036592;28;20437;-49
2021/10/16 12:32:07;;;;;;;2.43;0.90;;;13.60;99.90;;;;;;5037398;28;20421;-50
2021/10/16 12:34:37;;;;;;;2.13;1.63;;;13.60;99.90;;;;;;5036944;28;20437;-52
2021/10/16 12:37:12;;;;;;;2.17;1.20;;;13.70;99.90;;;;;;5037153;28;20437;-52
2021/10/16 12:39:40;;;;;;;1.80;1.23;;;13.70;99.90;;;;;;5036585;28;20440;-53
2021/10/16 12:42:09;;;;;;;2.43;1.30;;;13.70;99.90;;;;;;5036592;28;20434;-49
2021/10/16 12:44:45;;;;;;;6.63;1.73;;;13.70;99.90;;;;;;5036808;28;20491;-49
2021/10/16 12:47:14;;;;;;;2.37;1.47;;;13.70;99.90;;;;;;5037221;28;20437;-48
2021/10/16 12:49:44;;;;;;;2.83;1.07;;;13.60;99.90;;;;;;5037082;28;20473;-45
2021/10/16 12:52:30;;;;;;;4.50;1.10;;;13.60;99.90;;;;;;5037324;28;20521;-50
2021/10/16 12:54:58;;;;;;;4.13;1.77;;;13.60;99.90;;;;;;5035866;28;20430;-48
2021/10/16 12:57:26;;;;;;;7.47;2.20;;;13.50;99.90;;;;;;5036834;28;20485;-45
2021/10/16 12:59:53;;;;;;;6.93;1.73;;;13.40;99.90;;;;;;5036560;28;20485;-50
2021/10/16 13:02:21;;;;;;;4.33;2.07;;;13.40;99.90;;;;;;5036738;28;20429;-46
2021/10/16 13:04:49;;;;;;;12.63;2.00;;;13.40;99.90;;;;;;5036715;28;20504;-46
2021/10/16 13:07:17;;;;;;;2.67;1.67;;;13.50;99.90;;;;;;5037080;28;20420;-49
2021/10/16 13:09:47;;;;;;;8.30;1.40;;;13.50;99.90;;;;;;5037157;28;20448;-50
2021/10/16 13:12:14;;;;;;;7.57;1.63;;;13.50;99.90;;;;;;5036259;28;20498;-51
2021/10/16 13:14:43;;;;;;;2.50;1.23;;;13.50;99.90;;;;;;5037018;28;20441;-47
2021/10/16 13:17:10;;;;;;;2.10;1.00;;;13.40;99.90;;;;;;5036609;28;20449;-50
2021/10/16 13:19:37;;;;;;;2.90;1.23;;;13.30;99.90;;;;;;5036819;28;20467;-51
2021/10/16 13:22:04;;;;;;;6.90;1.20;;;13.20;99.90;;;;;;5036532;28;20447;-47
2021/10/16 13:24:31;;;;;;;1.93;1.10;;;13.20;99.90;;;;;;5036598;28;20496;-52
2021/10/16 13:27:00;;;;;;;3.33;1.47;;;13.10;99.90;;;;;;5036778;28;20441;-50
2021/10/16 13:29:26;;;;;;;1.90;1.17;;;13.20;99.90;;;;;;5036365;28;20448;-49
2021/10/16 13:31:54;;;;;;;5.27;1.53;;;13.20;99.90;;;;;;5036609;28;20445;-54